Startpagina
METAR-TAF:

METAR-TAF

Vliegvelden :

Luchthaven van Khartoem

Khartoem, Soedan

breedte: 15-36N, lengte: 032-33E, hoogte: 382 m

Actueel weer

Dit bericht is 20 minuten geleden gemaakt, om 17:00 UTC
Wind 10 kt uit het noorden
Temperatuur 24°C
Vochtigheid 18%
Druk 1017 hPa
Zicht 10 km of meer
geen wolken onder 1500 m en geen cumulonimbus

METAR: HSSS 261700Z 36010KT CAVOK 24/M02 Q1017 NOSIG

Tijdstip: 19:20 (17:20 UTC)

Verwachting

Dit bericht is 6 uur en het 20 minuten geleden gemaakt, om 11:00 UTC
Verwachting geldig van 26 om 12 UTC tot 27 om 18 UTC
Wind 10 kt uit het noordnoordoosten met uitschieters tot 20 kt
Zicht 10 km of meer
geen wolken onder 1500 m en geen cumulonimbus

TAF: HSSS 261100Z 2612/2718 02010G20KT CAVOK

Waarnemingen en weersverwachtingen van meer dan 4000 vliegvelden (METAR en TAF).

De beschikbare stations zijn de gele en rode punten op de kaart.

Ga met uw muis naar het station om de naam te zien.

Klik dan om waarnemingen en weersverwachtingen te zien.

kaart wijzigen: klik op de groene knoppen met een zwart kruis om in te zoomen, op de groene knop met een streepje om uit te zoomen of op de groene pijlen voor aangrenzende kaarten.


METAR-TAF: